Time;durP1;ratioP1;P1;durP2;ratioP2;P2;SDS_P1;SDS_P2;PMS_P1;PMS_P2;Temp;Humidity;BMP_temperature;BMP_pressure;BME280_temperature;BME280_humidity;BME280_pressure;Samples;Min_cycle;Max_cycle;Signal;HPM_P1;HPM_P2
2022/03/04 00:01:38;;;;;;;13.30;10.10;;;;;;100631.32;;;;107177;1273;66150;-33
2022/03/04 00:04:05;;;;;;;12.90;9.90;;;;;;100632.41;;;;107134;1273;64866;-34
2022/03/04 00:06:32;;;;;;;15.70;10.90;;;;;;100632.42;;;;107165;1274;64761;-43
2022/03/04 00:09:00;;;;;;;13.50;10.00;;;;;;100638.59;;;;107093;1274;64903;-33
2022/03/04 00:11:28;;;;;;;12.70;10.00;;;;;;100641.66;;;;107151;1273;63613;-33
2022/03/04 00:13:56;;;;;;;12.00;9.60;;;;;;100639.73;;;;107051;1274;65021;-34
2022/03/04 00:16:24;;;;;;;13.00;10.20;;;;;;100632.88;;;;107052;1276;65007;-42
2022/03/04 00:19:06;;;;;;;15.00;10.30;;;;;;100633.38;;;;107116;1274;64879;-40
2022/03/04 00:21:48;;;;;;;14.30;10.70;;;;;;100634.44;;;;107173;1273;64855;-34
2022/03/04 00:24:22;;;;;;;13.70;10.80;;;;;;100634.77;;;;107093;1275;64818;-33
2022/03/04 00:26:50;;;;;;;14.20;11.00;;;;;;100632.45;;;;107151;1273;67632;-33
2022/03/04 00:29:17;;;;;;;13.00;10.40;;;;;;100630.11;;;;107191;1273;65210;-38
2022/03/04 00:31:45;;;;;;;15.10;10.60;;;;;;100628.57;;;;107186;1273;64887;-41
2022/03/04 00:34:12;;;;;;;14.00;10.40;;;;;;100626.81;;;;107090;1274;64941;-42
2022/03/04 00:36:40;;;;;;;12.80;9.80;;;;;;100625.08;;;;107167;1273;63635;-41
2022/03/04 00:39:11;;;;;;;13.10;10.80;;;;;;100628.43;;;;107098;1273;65941;-40
2022/03/04 00:41:39;;;;;;;13.90;10.10;;;;;;100626.86;;;;107176;1273;64878;-36
2022/03/04 00:44:07;;;;;;;14.30;10.80;;;;;;100625.28;;;;107140;1273;65563;-34
2022/03/04 00:46:36;;;;;;;12.80;9.90;;;;;;100629.23;;;;107102;1273;65067;-41
2022/03/04 00:49:04;;;;;;;13.70;10.10;;;;;;100628.02;;;;107113;1274;64867;-40
2022/03/04 00:51:32;;;;;;;13.90;9.90;;;;;;100629.57;;;;107182;1273;65069;-39
2022/03/04 00:54:00;;;;;;;14.30;10.40;;;;;;100629.27;;;;107183;1273;64958;-41
2022/03/04 00:56:27;;;;;;;13.00;10.20;;;;;;100624.95;;;;107144;1273;64022;-33
2022/03/04 00:58:54;;;;;;;13.70;10.10;;;;;;100624.94;;;;107164;1273;64743;-32
2022/03/04 01:01:21;;;;;;;14.10;10.80;;;;;;100628.98;;;;107192;1273;64747;-33
2022/03/04 01:03:49;;;;;;;12.90;9.80;;;;;;100628.84;;;;107094;1274;66360;-33
2022/03/04 01:06:18;;;;;;;13.70;10.70;;;;;;100627.63;;;;107143;1273;64777;-34
2022/03/04 01:08:45;;;;;;;14.40;10.30;;;;;;100621.35;;;;107018;1275;64756;-33
2022/03/04 01:11:13;;;;;;;13.60;10.10;;;;;;100621.35;;;;107126;1277;64616;-40
2022/03/04 01:13:40;;;;;;;13.70;10.40;;;;;;100619.53;;;;107133;1273;64853;-40
2022/03/04 01:16:08;;;;;;;14.30;10.00;;;;;;100624.23;;;;107156;1273;67058;-40
2022/03/04 01:18:35;;;;;;;13.00;9.50;;;;;;100629.43;;;;107070;1277;64885;-40
2022/03/04 01:21:03;;;;;;;13.70;9.80;;;;;;100627.17;;;;107136;1273;64786;-39
2022/03/04 01:23:30;;;;;;;14.00;9.80;;;;;;100626.75;;;;107175;1273;64784;-39
2022/03/04 01:25:58;;;;;;;13.40;10.30;;;;;;100627.79;;;;107197;1273;65432;-34
2022/03/04 01:28:25;;;;;;;13.70;10.30;;;;;;100623.05;;;;107163;1273;64905;-33
2022/03/04 01:30:52;;;;;;;14.70;10.20;;;;;;100623.59;;;;107169;1273;65203;-40
2022/03/04 01:33:20;;;;;;;12.50;9.60;;;;;;100621.67;;;;107145;1273;64955;-41
2022/03/04 01:35:47;;;;;;;13.90;10.50;;;;;;100616.27;;;;107138;1274;64940;-40
2022/03/04 01:38:14;;;;;;;13.60;9.90;;;;;;100617.56;;;;107174;1273;64837;-43
2022/03/04 01:40:41;;;;;;;13.60;10.90;;;;;;100621.29;;;;107168;1273;64795;-41
2022/03/04 01:43:09;;;;;;;13.50;10.20;;;;;;100622.13;;;;107156;1273;64862;-41
2022/03/04 01:45:36;;;;;;;13.50;9.50;;;;;;100625.05;;;;107164;1273;64711;-32
2022/03/04 01:48:04;;;;;;;14.50;10.40;;;;;;100625.25;;;;107126;1274;65943;-33
2022/03/04 01:50:31;;;;;;;14.40;10.50;;;;;;100624.13;;;;107214;1273;64780;-39
2022/03/04 01:52:58;;;;;;;14.40;10.60;;;;;;100622.41;;;;107168;1273;66135;-40
2022/03/04 01:55:26;;;;;;;12.50;9.60;;;;;;100623.66;;;;107139;1273;64717;-39
2022/03/04 01:57:54;;;;;;;14.70;10.00;;;;;;100620.48;;;;107144;1274;64873;-49
2022/03/04 02:00:21;;;;;;;12.80;9.50;;;;;;100621.03;;;;107150;1273;64730;-40
2022/03/04 02:02:49;;;;;;;13.40;9.90;;;;;;100623.13;;;;107083;1274;66013;-41
2022/03/04 02:05:18;;;;;;;12.70;9.90;;;;;;100625.84;;;;107158;1273;64937;-40
2022/03/04 02:07:45;;;;;;;13.30;9.90;;;;;;100623.70;;;;107135;1274;64746;-40
2022/03/04 02:10:13;;;;;;;14.50;10.80;;;;;;100622.56;;;;107179;1273;64767;-41
2022/03/04 02:12:40;;;;;;;12.30;9.60;;;;;;100620.52;;;;107118;1273;65160;-41
2022/03/04 02:15:09;;;;;;;12.40;9.80;;;;;;100622.09;;;;107183;1274;64872;-40
2022/03/04 02:17:36;;;;;;;12.90;10.10;;;;;;100621.86;;;;107203;1273;67327;-34
2022/03/04 02:20:06;;;;;;;12.70;8.90;;;;;;100624.58;;;;107184;1273;64724;-34
2022/03/04 02:22:34;;;;;;;12.30;9.70;;;;;;100625.73;;;;107184;1273;64811;-41
2022/03/04 02:25:05;;;;;;;14.60;10.60;;;;;;100624.23;;;;107173;1273;64827;-41
2022/03/04 02:27:33;;;;;;;12.80;9.70;;;;;;100626.00;;;;107156;1273;64886;-34
2022/03/04 02:30:00;;;;;;;14.50;10.70;;;;;;100629.11;;;;107147;1277;64732;-35
2022/03/04 02:32:27;;;;;;;13.80;10.70;;;;;;100630.29;;;;107148;1273;64743;-41
2022/03/04 02:34:55;;;;;;;12.60;9.50;;;;;;100628.36;;;;107145;1273;64825;-41
2022/03/04 02:37:22;;;;;;;13.30;9.50;;;;;;100629.58;;;;107154;1273;64955;-41
2022/03/04 02:39:51;;;;;;;13.70;9.90;;;;;;100628.70;;;;107103;1274;64912;-40
2022/03/04 02:42:18;;;;;;;13.40;10.30;;;;;;100628.89;;;;107175;1273;66165;-33
2022/03/04 02:44:45;;;;;;;12.40;9.40;;;;;;100631.83;;;;107161;1273;64885;-33
2022/03/04 02:47:12;;;;;;;11.90;9.10;;;;;;100633.04;;;;107134;1273;64956;-41
2022/03/04 02:49:39;;;;;;;12.40;9.50;;;;;;100635.02;;;;107142;1273;64883;-39
2022/03/04 02:52:07;;;;;;;13.20;9.40;;;;;;100637.79;;;;107177;1273;64711;-33
2022/03/04 02:54:34;;;;;;;12.60;9.00;;;;;;100637.92;;;;107152;1274;65679;-33
2022/03/04 02:57:01;;;;;;;13.30;9.30;;;;;;100635.77;;;;107171;1273;64870;-41
2022/03/04 02:59:29;;;;;;;12.20;9.00;;;;;;100637.41;;;;107133;1273;64869;-41
2022/03/04 03:01:56;;;;;;;13.20;9.60;;;;;;100635.16;;;;107156;1273;64776;-41
2022/03/04 03:04:23;;;;;;;13.30;9.70;;;;;;100637.88;;;;107137;1274;64751;-43
2022/03/04 03:06:52;;;;;;;13.30;9.30;;;;;;100636.23;;;;107154;1273;64869;-40
2022/03/04 03:09:19;;;;;;;11.80;9.00;;;;;;100635.34;;;;107140;1273;64858;-41
2022/03/04 03:11:47;;;;;;;11.40;9.20;;;;;;100633.89;;;;107162;1273;65077;-33
2022/03/04 03:14:14;;;;;;;11.80;9.50;;;;;;100630.47;;;;107143;1273;64938;-33
2022/03/04 03:16:41;;;;;;;13.60;9.80;;;;;;100628.91;;;;107160;1273;64786;-40
2022/03/04 03:19:08;;;;;;;12.60;9.40;;;;;;100628.98;;;;107164;1273;66535;-40
2022/03/04 03:21:35;;;;;;;13.10;9.40;;;;;;100630.95;;;;107161;1273;64897;-41
2022/03/04 03:24:04;;;;;;;13.00;9.60;;;;;;100632.94;;;;107154;1273;64859;-40
2022/03/04 03:26:31;;;;;;;12.00;9.40;;;;;;100637.00;;;;107173;1273;64853;-40
2022/03/04 03:28:58;;;;;;;12.30;9.10;;;;;;100638.41;;;;107182;1273;64857;-41
2022/03/04 03:31:26;;;;;;;12.60;9.60;;;;;;100644.85;;;;107150;1273;65893;-34
2022/03/04 03:33:53;;;;;;;13.00;9.20;;;;;;100642.98;;;;107148;1273;64926;-34
2022/03/04 03:36:21;;;;;;;11.70;9.20;;;;;;100643.88;;;;107216;1273;64757;-34
2022/03/04 03:38:49;;;;;;;12.00;9.00;;;;;;100647.02;;;;107163;1273;64753;-34
2022/03/04 03:41:16;;;;;;;12.10;9.40;;;;;;100647.33;;;;107166;1273;64807;-41
2022/03/04 03:43:43;;;;;;;12.80;9.20;;;;;;100649.21;;;;107178;1273;64910;-40
2022/03/04 03:46:11;;;;;;;12.20;9.00;;;;;;100648.66;;;;107033;1276;64828;-42
2022/03/04 03:48:40;;;;;;;12.40;9.50;;;;;;100651.45;;;;107096;1274;64849;-47
2022/03/04 03:51:09;;;;;;;11.80;8.60;;;;;;100653.77;;;;107194;1273;64973;-32
2022/03/04 03:53:37;;;;;;;11.80;8.80;;;;;;100652.99;;;;107190;1273;64840;-34
2022/03/04 03:56:05;;;;;;;12.70;9.20;;;;;;100653.56;;;;107152;1273;66903;-41
2022/03/04 03:58:32;;;;;;;11.20;8.80;;;;;;100654.54;;;;107159;1273;64885;-41
2022/03/04 04:00:59;;;;;;;11.30;9.10;;;;;;100653.42;;;;107125;1274;64747;-39
2022/03/04 04:03:28;;;;;;;11.90;8.40;;;;;;100653.86;;;;107130;1274;64779;-41
2022/03/04 04:05:55;;;;;;;11.30;8.20;;;;;;100654.80;;;;107055;1277;63934;-41
2022/03/04 04:08:23;;;;;;;11.40;7.80;;;;;;100656.13;;;;107096;1273;64915;-40
2022/03/04 04:10:50;;;;;;;12.50;8.90;;;;;;100656.75;;;;107140;1273;64731;-38
2022/03/04 04:13:18;;;;;;;12.70;8.50;;;;;;100655.31;;;;107142;1273;64832;-33
2022/03/04 04:15:45;;;;;;;11.40;8.00;;;;;;100655.10;;;;107146;1273;64851;-41
2022/03/04 04:18:12;;;;;;;12.00;8.20;;;;;;100657.13;;;;107166;1273;64970;-40
2022/03/04 04:20:40;;;;;;;11.40;8.20;;;;;;100656.60;;;;107141;1273;65175;-39
2022/03/04 04:23:07;;;;;;;10.70;8.00;;;;;;100659.20;;;;107102;1274;64898;-41
2022/03/04 04:25:34;;;;;;;11.70;8.00;;;;;;100663.43;;;;106881;1273;379846;-41
2022/03/04 04:28:02;;;;;;;11.50;8.00;;;;;;100665.16;;;;107160;1273;64757;-41
2022/03/04 04:30:31;;;;;;;11.20;7.90;;;;;;100669.57;;;;107139;1274;64682;-49
2022/03/04 04:32:58;;;;;;;10.40;7.80;;;;;;100671.57;;;;107196;1273;65360;-42
2022/03/04 04:35:26;;;;;;;12.30;8.70;;;;;;100670.05;;;;107145;1273;64742;-33
2022/03/04 04:37:53;;;;;;;10.70;7.90;;;;;;100672.62;;;;107143;1273;64837;-33
2022/03/04 04:40:20;;;;;;;10.50;7.90;;;;;;100677.52;;;;106909;1273;64899;-33
2022/03/04 04:42:48;;;;;;;10.30;7.60;;;;;;100675.58;;;;107115;1276;64856;-34
2022/03/04 04:45:15;;;;;;;11.50;8.00;;;;;;100676.08;;;;107153;1273;67204;-33
2022/03/04 04:47:43;;;;;;;10.30;7.10;;;;;;100677.40;;;;107106;1274;64777;-33
2022/03/04 04:50:10;;;;;;;10.40;7.60;;;;;;100679.61;;;;107096;1274;64898;-31
2022/03/04 04:52:38;;;;;;;10.00;7.10;;;;;;100678.89;;;;107151;1273;64773;-40
2022/03/04 04:55:07;;;;;;;11.20;7.80;;;;;;100682.55;;;;107141;1274;65020;-41
2022/03/04 04:57:34;;;;;;;10.20;7.40;;;;;;100686.26;;;;107193;1274;67492;-33
2022/03/04 05:00:01;;;;;;;11.00;7.90;;;;;;100685.00;;;;107139;1273;64703;-34
2022/03/04 05:02:28;;;;;;;11.20;7.70;;;;;;100685.64;;;;107167;1273;64756;-41
2022/03/04 05:04:55;;;;;;;9.80;7.40;;;;;;100685.71;;;;107134;1273;64728;-41
2022/03/04 05:07:23;;;;;;;10.70;7.80;;;;;;100685.29;;;;107075;1274;64872;-33
2022/03/04 05:09:50;;;;;;;9.10;7.30;;;;;;100682.64;;;;107144;1273;66376;-32
2022/03/04 05:12:17;;;;;;;10.60;7.50;;;;;;100684.50;;;;107078;1273;64888;-40
2022/03/04 05:14:44;;;;;;;10.10;7.00;;;;;;100685.96;;;;107154;1273;64856;-41
2022/03/04 05:17:11;;;;;;;8.80;7.10;;;;;;100685.54;;;;107137;1273;64766;-39
2022/03/04 05:19:39;;;;;;;9.40;7.10;;;;;;100687.27;;;;107158;1273;64769;-40
2022/03/04 05:22:06;;;;;;;10.40;7.70;;;;;;100692.06;;;;107109;1274;65940;-33
2022/03/04 05:24:33;;;;;;;10.30;7.20;;;;;;100691.38;;;;107134;1273;64829;-34
2022/03/04 05:27:00;;;;;;;8.90;6.60;;;;;;100692.17;;;;107156;1273;64736;-40
2022/03/04 05:29:28;;;;;;;9.20;6.60;;;;;;100694.75;;;;107066;1276;64839;-40
2022/03/04 05:31:55;;;;;;;8.80;6.70;;;;;;100700.45;;;;107153;1273;64962;-33
2022/03/04 05:34:22;;;;;;;9.40;6.90;;;;;;100701.47;;;;107160;1273;67614;-33
2022/03/04 05:36:49;;;;;;;9.40;6.40;;;;;;100701.88;;;;107106;1273;65467;-33
2022/03/04 05:39:17;;;;;;;9.50;6.40;;;;;;100703.59;;;;107138;1273;64810;-33
2022/03/04 05:41:45;;;;;;;10.00;6.60;;;;;;100706.45;;;;107213;1273;64758;-41
2022/03/04 05:44:14;;;;;;;9.10;6.20;;;;;;100710.45;;;;107163;1273;64776;-41
2022/03/04 05:46:42;;;;;;;9.60;6.50;;;;;;100710.14;;;;107207;1273;67353;-41
2022/03/04 05:49:09;;;;;;;9.10;6.50;;;;;;100713.29;;;;107170;1273;64817;-40
2022/03/04 05:51:36;;;;;;;9.60;6.40;;;;;;100716.86;;;;107127;1273;64831;-41
2022/03/04 05:54:04;;;;;;;9.60;6.20;;;;;;100717.63;;;;107123;1273;64742;-40
2022/03/04 05:56:31;;;;;;;10.40;6.60;;;;;;100716.54;;;;107171;1274;64760;-40
2022/03/04 05:58:58;;;;;;;10.00;6.40;;;;;;100721.73;;;;107167;1273;65216;-40
2022/03/04 06:01:26;;;;;;;9.00;6.00;;;;;;100725.10;;;;107163;1273;64712;-40
2022/03/04 06:03:53;;;;;;;9.00;6.10;;;;;;100726.75;;;;107152;1273;64976;-40
2022/03/04 06:06:20;;;;;;;9.60;6.50;;;;;;100727.45;;;;107130;1273;64871;-33
2022/03/04 06:08:48;;;;;;;8.00;5.50;;;;;;100728.54;;;;107169;1273;64885;-34
2022/03/04 06:11:16;;;;;;;8.30;5.60;;;;;;100728.79;;;;107112;1274;65887;-41
2022/03/04 06:13:43;;;;;;;8.20;5.40;;;;;;100733.91;;;;107144;1273;64881;-41
2022/03/04 06:16:10;;;;;;;8.80;6.10;;;;;;100734.48;;;;107101;1273;64748;-33
2022/03/04 06:18:37;;;;;;;9.60;5.90;;;;;;100734.84;;;;107159;1273;64765;-33
2022/03/04 06:21:05;;;;;;;9.70;6.80;;;;;;100740.48;;;;107135;1274;64781;-33
2022/03/04 06:23:32;;;;;;;10.90;5.30;;;;;;100745.89;;;;107156;1273;64753;-33
2022/03/04 06:25:59;;;;;;;8.90;6.30;;;;;;100746.45;;;;107114;1273;64787;-33
2022/03/04 06:28:27;;;;;;;8.90;5.70;;;;;;100745.48;;;;107150;1273;64765;-43
2022/03/04 06:30:54;;;;;;;8.10;5.50;;;;;;100752.55;;;;107029;1276;64621;-35
2022/03/04 06:33:36;;;;;;;9.20;6.00;;;;;;100753.83;;;;107135;1273;64629;-33
2022/03/04 06:36:13;;;;;;;9.10;5.70;;;;;;100757.12;;;;107134;1274;66194;-41
2022/03/04 06:38:44;;;;;;;9.50;6.00;;;;;;100762.02;;;;107133;1273;64974;-41
2022/03/04 06:41:14;;;;;;;8.40;6.00;;;;;;100760.98;;;;107132;1276;64809;-41
2022/03/04 06:43:41;;;;;;;9.60;5.90;;;;;;100763.37;;;;107147;1274;64958;-40
2022/03/04 06:46:09;;;;;;;7.70;5.30;;;;;;100766.15;;;;107144;1273;64820;-38
2022/03/04 06:48:37;;;;;;;9.40;5.70;;;;;;100774.21;;;;107085;1276;66462;-36
2022/03/04 06:51:05;;;;;;;9.10;5.70;;;;;;100778.23;;;;107065;1273;64781;-33
2022/03/04 06:53:32;;;;;;;8.30;5.30;;;;;;100776.20;;;;107114;1274;64845;-35
2022/03/04 06:56:00;;;;;;;8.50;5.10;;;;;;100776.58;;;;107144;1273;64759;-42
2022/03/04 06:58:27;;;;;;;7.70;5.50;;;;;;100775.95;;;;107159;1273;64889;-41
2022/03/04 07:00:55;;;;;;;7.60;5.10;;;;;;100773.45;;;;107019;1274;64973;-34
2022/03/04 07:03:23;;;;;;;9.60;5.60;;;;;;100770.51;;;;107129;1273;64746;-34
2022/03/04 07:05:52;;;;;;;8.30;5.50;;;;;;100774.46;;;;107128;1274;64813;-41
2022/03/04 07:08:19;;;;;;;8.50;5.60;;;;;;100775.24;;;;107142;1273;64879;-41
2022/03/04 07:10:48;;;;;;;8.50;5.50;;;;;;100777.02;;;;107165;1273;64738;-33
2022/03/04 07:13:16;;;;;;;8.20;5.90;;;;;;100776.77;;;;107181;1273;66289;-33
2022/03/04 07:15:43;;;;;;;8.90;6.00;;;;;;100776.20;;;;107118;1273;64724;-39
2022/03/04 07:18:11;;;;;;;7.60;5.30;;;;;;100780.59;;;;107159;1273;64867;-44
2022/03/04 07:20:40;;;;;;;8.50;5.40;;;;;;100782.10;;;;107146;1273;64734;-40
2022/03/04 07:23:08;;;;;;;8.00;5.30;;;;;;100785.92;;;;107164;1275;64892;-34
2022/03/04 07:25:36;;;;;;;8.40;5.60;;;;;;100787.32;;;;107110;1273;65911;-33
2022/03/04 07:28:04;;;;;;;8.50;4.70;;;;;;100790.13;;;;107137;1273;64837;-35
2022/03/04 07:30:32;;;;;;;8.40;5.40;;;;;;100794.91;;;;107175;1273;64848;-33
2022/03/04 07:33:01;;;;;;;7.90;4.90;;;;;;100793.11;;;;107153;1273;64761;-33
2022/03/04 07:35:28;;;;;;;8.30;4.70;;;;;;100790.78;;;;107205;1273;64725;-32
2022/03/04 07:37:55;;;;;;;7.40;4.90;;;;;;100794.50;;;;107150;1273;65879;-33
2022/03/04 07:40:23;;;;;;;6.90;4.80;;;;;;100797.04;;;;107154;1273;64782;-35
2022/03/04 07:42:50;;;;;;;9.70;5.20;;;;;;100796.43;;;;107177;1273;64734;-34
2022/03/04 07:45:17;;;;;;;8.00;4.50;;;;;;100799.00;;;;107144;1273;64856;-33
2022/03/04 07:47:44;;;;;;;8.20;5.20;;;;;;100802.75;;;;107200;1273;64978;-41
2022/03/04 07:50:14;;;;;;;8.40;5.00;;;;;;100804.04;;;;107158;1273;66470;-43
2022/03/04 07:52:43;;;;;;;7.30;5.00;;;;;;100804.60;;;;107156;1273;64921;-41
2022/03/04 07:55:14;;;;;;;8.50;5.20;;;;;;100804.77;;;;107107;1274;64817;-41
2022/03/04 07:57:43;;;;;;;7.80;4.80;;;;;;100806.48;;;;107170;1273;64918;-33
2022/03/04 08:00:15;;;;;;;8.00;5.00;;;;;;100809.26;;;;107216;1274;64876;-33
2022/03/04 08:02:43;;;;;;;7.10;4.60;;;;;;100813.73;;;;107179;1273;66475;-42
2022/03/04 08:05:10;;;;;;;7.50;4.60;;;;;;100813.83;;;;107132;1273;64764;-41
2022/03/04 08:07:38;;;;;;;7.30;5.10;;;;;;100814.88;;;;107181;1273;64846;-41
2022/03/04 08:10:08;;;;;;;8.10;5.10;;;;;;100815.73;;;;107145;1273;65080;-42
2022/03/04 08:12:37;;;;;;;8.80;5.30;;;;;;100819.58;;;;107170;1276;64743;-41
2022/03/04 08:15:08;;;;;;;6.90;4.50;;;;;;100816.02;;;;107143;1276;65891;-39
2022/03/04 08:17:35;;;;;;;7.70;5.10;;;;;;100820.71;;;;107168;1273;64757;-33
2022/03/04 08:20:04;;;;;;;8.50;4.70;;;;;;100819.41;;;;107136;1277;64885;-33
2022/03/04 08:22:32;;;;;;;7.10;4.70;;;;;;100821.42;;;;107149;1276;64767;-33
2022/03/04 08:24:59;;;;;;;8.20;4.70;;;;;;100823.71;;;;107156;1273;64750;-33
2022/03/04 08:27:27;;;;;;;8.00;5.10;;;;;;100825.66;;;;107144;1273;66517;-41
2022/03/04 08:29:54;;;;;;;8.00;5.30;;;;;;100825.58;;;;107151;1273;64873;-33
2022/03/04 08:32:23;;;;;;;7.60;4.90;;;;;;100829.17;;;;107172;1273;65530;-33
2022/03/04 08:34:50;;;;;;;8.20;4.90;;;;;;100831.46;;;;107115;1274;64862;-33
2022/03/04 08:37:17;;;;;;;9.70;5.40;;;;;;100837.51;;;;107107;1276;64836;-41
2022/03/04 08:39:46;;;;;;;6.90;4.50;;;;;;100838.67;;;;107111;1273;67863;-32
2022/03/04 08:42:14;;;;;;;9.60;5.30;;;;;;100843.15;;;;107083;1273;64858;-38
2022/03/04 08:44:42;;;;;;;9.50;5.10;;;;;;100844.60;;;;107217;1273;64758;-39
2022/03/04 08:47:10;;;;;;;7.60;4.60;;;;;;100847.40;;;;107161;1273;64764;-40
2022/03/04 08:49:37;;;;;;;8.20;5.50;;;;;;100849.20;;;;107210;1273;64837;-39
2022/03/04 08:52:06;;;;;;;8.80;5.30;;;;;;100849.88;;;;107061;1273;65084;-35
2022/03/04 08:54:33;;;;;;;8.00;5.20;;;;;;100850.80;;;;107120;1273;64755;-37
2022/03/04 08:57:01;;;;;;;7.90;5.40;;;;;;100850.07;;;;107115;1274;64885;-36
2022/03/04 08:59:28;;;;;;;9.40;5.80;;;;;;100850.33;;;;107104;1274;64972;-35
2022/03/04 09:01:56;;;;;;;8.40;5.50;;;;;;100850.25;;;;107131;1273;64814;-39
2022/03/04 09:04:24;;;;;;;8.10;5.20;;;;;;100853.31;;;;107120;1273;67669;-35
2022/03/04 09:06:52;;;;;;;7.80;5.50;;;;;;100849.83;;;;107134;1274;65178;-36
2022/03/04 09:09:20;;;;;;;8.30;5.20;;;;;;100850.16;;;;107122;1274;64766;-33
2022/03/04 09:11:47;;;;;;;8.80;5.70;;;;;;100851.45;;;;107152;1273;64891;-35
2022/03/04 09:14:15;;;;;;;8.00;5.40;;;;;;100850.59;;;;107152;1276;64753;-34
2022/03/04 09:16:43;;;;;;;9.50;5.80;;;;;;100850.95;;;;107180;1273;67174;-35
2022/03/04 09:19:10;;;;;;;8.50;5.50;;;;;;100851.88;;;;107110;1277;64831;-36
2022/03/04 09:21:38;;;;;;;8.50;6.00;;;;;;100855.81;;;;107141;1273;64750;-36
2022/03/04 09:24:07;;;;;;;8.00;5.40;;;;;;100856.47;;;;107158;1273;64987;-40
2022/03/04 09:26:34;;;;;;;8.30;5.20;;;;;;100859.33;;;;107086;1277;64699;-35
2022/03/04 09:29:02;;;;;;;7.90;5.00;;;;;;100860.77;;;;107157;1274;66565;-36
2022/03/04 09:31:29;;;;;;;7.80;5.30;;;;;;100864.70;;;;107130;1273;64836;-41
2022/03/04 09:33:57;;;;;;;8.80;5.00;;;;;;100864.55;;;;107120;1273;64830;-39
2022/03/04 09:36:25;;;;;;;8.90;5.30;;;;;;100863.90;;;;107134;1273;64879;-39
2022/03/04 09:38:53;;;;;;;9.00;5.30;;;;;;100865.05;;;;107099;1273;64893;-40
2022/03/04 09:41:21;;;;;;;7.70;5.30;;;;;;100867.56;;;;107153;1273;65303;-35
2022/03/04 09:43:49;;;;;;;8.20;5.60;;;;;;100867.52;;;;107152;1274;64857;-41
2022/03/04 09:46:21;;;;;;;7.30;4.80;;;;;;100870.77;;;;107111;1273;64709;-35
2022/03/04 09:48:52;;;;;;;9.30;5.30;;;;;;100872.11;;;;108121;1274;63991;-35
2022/03/04 09:51:21;;;;;;;7.50;4.60;;;;;;100873.65;;;;107174;1274;64853;-35
2022/03/04 09:53:52;;;;;;;7.70;5.20;;;;;;100872.38;;;;107189;1274;64965;-34
2022/03/04 09:56:20;;;;;;;9.50;5.50;;;;;;100871.02;;;;107163;1274;64606;-34
2022/03/04 09:58:48;;;;;;;8.20;5.30;;;;;;100873.13;;;;107155;1273;64863;-33
2022/03/04 10:01:16;;;;;;;7.50;5.40;;;;;;100871.95;;;;107915;1273;64838;-39
2022/03/04 10:03:52;;;;;;;7.40;5.10;;;;;;100871.93;;;;107151;1273;64842;-40
2022/03/04 10:06:21;;;;;;;8.90;5.90;;;;;;100871.02;;;;107135;1274;64863;-35
2022/03/04 10:08:53;;;;;;;8.60;6.10;;;;;;100871.52;;;;107131;1275;64753;-35
2022/03/04 10:11:34;;;;;;;8.80;6.20;;;;;;100869.21;;;;107110;1276;64814;-41
2022/03/04 10:14:08;;;;;;;8.60;6.20;;;;;;100872.06;;;;107128;1274;64884;-46
2022/03/04 10:16:41;;;;;;;9.30;6.10;;;;;;100874.66;;;;107160;1273;64682;-41
2022/03/04 10:19:16;;;;;;;8.70;6.40;;;;;;100873.86;;;;107087;1273;67650;-40
2022/03/04 10:21:50;;;;;;;9.00;6.50;;;;;;100872.73;;;;107152;1274;64846;-42
2022/03/04 10:24:27;;;;;;;8.60;6.50;;;;;;100872.77;;;;107136;1273;64765;-43
2022/03/04 10:27:05;;;;;;;8.60;6.20;;;;;;100870.79;;;;107161;1274;64859;-39
2022/03/04 10:29:41;;;;;;;8.40;6.30;;;;;;100871.89;;;;107133;1274;64838;-43
2022/03/04 10:32:20;;;;;;;9.30;6.80;;;;;;100875.36;;;;107145;1275;67250;-40
2022/03/04 10:35:03;;;;;;;9.30;6.70;;;;;;100871.73;;;;107139;1274;65406;-52
2022/03/04 10:37:50;;;;;;;8.10;6.30;;;;;;100868.38;;;;107182;1273;64757;-34
2022/03/04 10:40:27;;;;;;;8.40;6.70;;;;;;100867.71;;;;107112;1273;64913;-35
2022/03/04 10:42:59;;;;;;;9.80;6.30;;;;;;100863.96;;;;107199;1273;64858;-41
2022/03/04 10:45:30;;;;;;;8.50;6.60;;;;;;100863.41;;;;107151;1273;66106;-37
2022/03/04 10:48:03;;;;;;;8.20;6.20;;;;;;100861.15;;;;107168;1274;64833;-36
2022/03/04 10:50:42;;;;;;;8.30;6.40;;;;;;100862.87;;;;107147;1274;64857;-35
2022/03/04 10:53:13;;;;;;;8.10;6.50;;;;;;100866.38;;;;107133;1273;64763;-38
2022/03/04 10:55:51;;;;;;;9.10;6.50;;;;;;100868.36;;;;107178;1273;64862;-35
2022/03/04 10:58:29;;;;;;;8.40;6.20;;;;;;100869.23;;;;107168;1274;68121;-44
2022/03/04 11:01:09;;;;;;;8.20;6.30;;;;;;100869.66;;;;107159;1273;64987;-39
2022/03/04 11:03:39;;;;;;;8.30;5.80;;;;;;100870.11;;;;107025;1273;64773;-44
2022/03/04 11:06:15;;;;;;;9.70;6.80;;;;;;100873.61;;;;107180;1274;64702;-36
2022/03/04 11:08:43;;;;;;;8.90;6.30;;;;;;100874.93;;;;107197;1273;64895;-35
2022/03/04 11:11:12;;;;;;;8.40;6.10;;;;;;100876.63;;;;107142;1273;65955;-43
2022/03/04 11:13:40;;;;;;;8.90;5.90;;;;;;100879.79;;;;107166;1274;64759;-39
2022/03/04 11:16:08;;;;;;;7.90;6.30;;;;;;100879.86;;;;107104;1274;64874;-36
2022/03/04 11:18:36;;;;;;;8.30;6.10;;;;;;100883.17;;;;107130;1274;64770;-35
2022/03/04 11:21:04;;;;;;;8.00;6.20;;;;;;100881.08;;;;107178;1273;64859;-39
2022/03/04 11:23:37;;;;;;;8.50;6.40;;;;;;100883.72;;;;107178;1273;65644;-38
2022/03/04 11:26:21;;;;;;;8.40;6.10;;;;;;100885.02;;;;107116;1276;64849;-35
2022/03/04 11:28:51;;;;;;;8.40;6.20;;;;;;100887.23;;;;107136;1273;64717;-35
2022/03/04 11:31:22;;;;;;;8.40;6.70;;;;;;100886.66;;;;107156;1273;65509;-41
2022/03/04 11:33:52;;;;;;;8.30;6.40;;;;;;100885.40;;;;107177;1274;64943;-34
2022/03/04 11:36:27;;;;;;;7.70;5.90;;;;;;100881.55;;;;107091;1273;64974;-39
2022/03/04 11:38:58;;;;;;;7.50;5.90;;;;;;100883.43;;;;107135;1273;64971;-39
2022/03/04 11:41:30;;;;;;;8.00;6.30;;;;;;100878.61;;;;107060;1277;64775;-35
2022/03/04 11:44:01;;;;;;;9.40;6.10;;;;;;100881.02;;;;107125;1274;64887;-34
2022/03/04 11:46:55;;;;;;;8.10;5.50;;;;;;100883.46;;;;107161;1274;65463;-35
2022/03/04 11:49:46;;;;;;;6.80;5.60;;;;;;100880.67;;;;107130;1274;67458;-33
2022/03/04 11:52:27;;;;;;;8.50;6.20;;;;;;100883.84;;;;107153;1273;63997;-36
2022/03/04 11:54:56;;;;;;;8.00;6.30;;;;;;100884.83;;;;107093;1274;64731;-33
2022/03/04 11:57:27;;;;;;;8.10;5.60;;;;;;100884.35;;;;107120;1273;64927;-37
2022/03/04 11:59:55;;;;;;;7.60;6.20;;;;;;100881.34;;;;107093;1274;64671;-38
2022/03/04 12:02:35;;;;;;;7.60;5.80;;;;;;100878.58;;;;107160;1274;65914;-38
2022/03/04 12:05:14;;;;;;;7.50;5.60;;;;;;100875.98;;;;107128;1273;64749;-38
2022/03/04 12:07:44;;;;;;;7.30;5.80;;;;;;100871.94;;;;107111;1274;64745;-39
2022/03/04 12:10:14;;;;;;;7.10;5.30;;;;;;100868.29;;;;107035;1277;64884;-40
2022/03/04 12:13:05;;;;;;;7.40;5.60;;;;;;100865.23;;;;107180;1273;64766;-38
2022/03/04 12:15:40;;;;;;;6.70;5.10;;;;;;100863.86;;;;107127;1274;67084;-38
2022/03/04 12:18:26;;;;;;;7.40;4.90;;;;;;100864.07;;;;107160;1273;64996;-32
2022/03/04 12:21:10;;;;;;;6.80;4.50;;;;;;100861.80;;;;107115;1273;64747;-39
2022/03/04 12:23:41;;;;;;;7.70;4.70;;;;;;100865.92;;;;107137;1273;64756;-38
2022/03/04 12:26:20;;;;;;;6.40;4.40;;;;;;100864.30;;;;106901;1273;322935;-39
2022/03/04 12:29:08;;;;;;;6.70;4.60;;;;;;100862.11;;;;107148;1273;66114;-37
2022/03/04 12:31:41;;;;;;;6.40;4.40;;;;;;100861.44;;;;107142;1273;64967;-34
2022/03/04 12:34:38;;;;;;;6.90;4.50;;;;;;100856.07;;;;107155;1273;64754;-35
2022/03/04 12:37:08;;;;;;;6.70;4.30;;;;;;100856.75;;;;107092;1274;64770;-34
2022/03/04 12:39:38;;;;;;;6.10;4.40;;;;;;100858.45;;;;107160;1274;64729;-33
2022/03/04 12:42:07;;;;;;;6.20;4.20;;;;;;100855.27;;;;107096;1277;66459;-40
2022/03/04 12:44:36;;;;;;;6.40;4.50;;;;;;100853.91;;;;107141;1274;65972;-37
2022/03/04 12:47:04;;;;;;;6.80;4.90;;;;;;100854.45;;;;107091;1274;64786;-33
2022/03/04 12:49:33;;;;;;;7.30;5.00;;;;;;100857.70;;;;107174;1273;64907;-37
2022/03/04 12:52:00;;;;;;;7.70;4.70;;;;;;100860.50;;;;107203;1273;64814;-49